sensor_id;sensor_type;location;lat;lon;timestamp;P1;durP1;ratioP1;P2;durP2;ratioP2
21392;SDS011;10857;52.228;21.026;2023-01-06T00:01:17;8.70;;;5.90;;
21392;SDS011;10857;52.228;21.026;2023-01-06T00:03:48;9.00;;;5.87;;
21392;SDS011;10857;52.228;21.026;2023-01-06T00:06:17;9.23;;;5.80;;
21392;SDS011;10857;52.228;21.026;2023-01-06T00:08:44;8.07;;;6.27;;
21392;SDS011;10857;52.228;21.026;2023-01-06T00:11:12;9.53;;;5.83;;
21392;SDS011;10857;52.228;21.026;2023-01-06T00:13:40;8.80;;;5.97;;
21392;SDS011;10857;52.228;21.026;2023-01-06T00:16:12;9.07;;;6.00;;
21392;SDS011;10857;52.228;21.026;2023-01-06T00:18:40;8.97;;;6.03;;
21392;SDS011;10857;52.228;21.026;2023-01-06T00:21:08;7.83;;;6.17;;
21392;SDS011;10857;52.228;21.026;2023-01-06T00:23:35;9.43;;;6.30;;
21392;SDS011;10857;52.228;21.026;2023-01-06T00:26:03;9.07;;;5.97;;
21392;SDS011;10857;52.228;21.026;2023-01-06T00:28:32;10.07;;;6.87;;
21392;SDS011;10857;52.228;21.026;2023-01-06T00:31:05;9.10;;;6.87;;
21392;SDS011;10857;52.228;21.026;2023-01-06T00:33:33;9.23;;;6.60;;
21392;SDS011;10857;52.228;21.026;2023-01-06T00:36:00;9.43;;;6.53;;
21392;SDS011;10857;52.228;21.026;2023-01-06T00:38:32;9.13;;;6.70;;
21392;SDS011;10857;52.228;21.026;2023-01-06T00:41:04;8.63;;;6.23;;
21392;SDS011;10857;52.228;21.026;2023-01-06T00:43:54;9.60;;;6.80;;
21392;SDS011;10857;52.228;21.026;2023-01-06T00:46:23;10.37;;;7.27;;
21392;SDS011;10857;52.228;21.026;2023-01-06T00:48:55;7.83;;;6.10;;
21392;SDS011;10857;52.228;21.026;2023-01-06T00:51:32;10.23;;;7.20;;
21392;SDS011;10857;52.228;21.026;2023-01-06T00:54:02;9.23;;;6.43;;
21392;SDS011;10857;52.228;21.026;2023-01-06T00:56:30;11.43;;;6.93;;
21392;SDS011;10857;52.228;21.026;2023-01-06T00:59:00;11.33;;;6.53;;
21392;SDS011;10857;52.228;21.026;2023-01-06T01:01:32;10.13;;;6.83;;
21392;SDS011;10857;52.228;21.026;2023-01-06T01:04:02;9.03;;;6.80;;
21392;SDS011;10857;52.228;21.026;2023-01-06T01:06:29;8.37;;;5.83;;
21392;SDS011;10857;52.228;21.026;2023-01-06T01:08:58;9.47;;;6.73;;
21392;SDS011;10857;52.228;21.026;2023-01-06T01:11:26;10.27;;;7.00;;
21392;SDS011;10857;52.228;21.026;2023-01-06T01:14:13;10.03;;;6.37;;
21392;SDS011;10857;52.228;21.026;2023-01-06T01:16:41;11.17;;;7.33;;
21392;SDS011;10857;52.228;21.026;2023-01-06T01:19:10;10.70;;;6.77;;
21392;SDS011;10857;52.228;21.026;2023-01-06T01:21:39;10.23;;;6.90;;
21392;SDS011;10857;52.228;21.026;2023-01-06T01:24:07;9.77;;;6.63;;
21392;SDS011;10857;52.228;21.026;2023-01-06T01:26:44;10.90;;;6.77;;
21392;SDS011;10857;52.228;21.026;2023-01-06T01:29:14;10.23;;;7.07;;
21392;SDS011;10857;52.228;21.026;2023-01-06T01:31:42;9.57;;;6.80;;
21392;SDS011;10857;52.228;21.026;2023-01-06T01:34:10;9.67;;;6.93;;
21392;SDS011;10857;52.228;21.026;2023-01-06T01:36:41;10.77;;;6.87;;
21392;SDS011;10857;52.228;21.026;2023-01-06T01:39:10;11.10;;;6.73;;
21392;SDS011;10857;52.228;21.026;2023-01-06T01:41:40;12.13;;;7.90;;
21392;SDS011;10857;52.228;21.026;2023-01-06T01:46:54;10.67;;;7.43;;
21392;SDS011;10857;52.228;21.026;2023-01-06T01:49:25;9.97;;;7.13;;
21392;SDS011;10857;52.228;21.026;2023-01-06T01:51:54;10.33;;;7.73;;
21392;SDS011;10857;52.228;21.026;2023-01-06T01:54:25;10.73;;;7.20;;
21392;SDS011;10857;52.228;21.026;2023-01-06T01:56:55;11.27;;;7.80;;
21392;SDS011;10857;52.228;21.026;2023-01-06T01:59:26;9.57;;;6.47;;
21392;SDS011;10857;52.228;21.026;2023-01-06T02:01:55;12.53;;;7.93;;
21392;SDS011;10857;52.228;21.026;2023-01-06T02:04:23;11.10;;;7.43;;
21392;SDS011;10857;52.228;21.026;2023-01-06T02:06:52;10.80;;;7.80;;
21392;SDS011;10857;52.228;21.026;2023-01-06T02:09:21;10.47;;;7.23;;
21392;SDS011;10857;52.228;21.026;2023-01-06T02:11:50;10.23;;;7.97;;
21392;SDS011;10857;52.228;21.026;2023-01-06T02:14:19;11.47;;;7.80;;
21392;SDS011;10857;52.228;21.026;2023-01-06T02:19:29;12.57;;;8.50;;
21392;SDS011;10857;52.228;21.026;2023-01-06T02:35:25;11.20;;;6.90;;
21392;SDS011;10857;52.228;21.026;2023-01-06T02:40:37;9.90;;;6.83;;
21392;SDS011;10857;52.228;21.026;2023-01-06T02:43:12;10.07;;;6.83;;
21392;SDS011;10857;52.228;21.026;2023-01-06T02:53:40;7.03;;;4.90;;
21392;SDS011;10857;52.228;21.026;2023-01-06T02:56:10;7.80;;;5.50;;
21392;SDS011;10857;52.228;21.026;2023-01-06T02:58:46;8.20;;;5.17;;
21392;SDS011;10857;52.228;21.026;2023-01-06T03:01:22;6.83;;;4.73;;
21392;SDS011;10857;52.228;21.026;2023-01-06T03:03:51;6.57;;;4.53;;
21392;SDS011;10857;52.228;21.026;2023-01-06T03:06:26;6.83;;;4.90;;
21392;SDS011;10857;52.228;21.026;2023-01-06T03:08:57;7.47;;;4.87;;
21392;SDS011;10857;52.228;21.026;2023-01-06T03:11:26;7.60;;;4.80;;
21392;SDS011;10857;52.228;21.026;2023-01-06T03:13:55;6.87;;;4.77;;
21392;SDS011;10857;52.228;21.026;2023-01-06T03:16:26;8.17;;;4.97;;
21392;SDS011;10857;52.228;21.026;2023-01-06T03:18:53;7.33;;;5.10;;
21392;SDS011;10857;52.228;21.026;2023-01-06T03:21:28;6.20;;;4.80;;
21392;SDS011;10857;52.228;21.026;2023-01-06T03:23:56;6.90;;;5.07;;
21392;SDS011;10857;52.228;21.026;2023-01-06T03:26:24;7.73;;;4.90;;
21392;SDS011;10857;52.228;21.026;2023-01-06T03:28:52;6.80;;;4.73;;
21392;SDS011;10857;52.228;21.026;2023-01-06T03:31:34;7.37;;;4.70;;
21392;SDS011;10857;52.228;21.026;2023-01-06T03:34:07;6.87;;;4.70;;
21392;SDS011;10857;52.228;21.026;2023-01-06T03:36:49;7.30;;;4.50;;
21392;SDS011;10857;52.228;21.026;2023-01-06T03:39:41;7.33;;;5.20;;
21392;SDS011;10857;52.228;21.026;2023-01-06T03:47:42;8.73;;;6.03;;
21392;SDS011;10857;52.228;21.026;2023-01-06T03:50:25;7.13;;;5.23;;
21392;SDS011;10857;52.228;21.026;2023-01-06T03:52:58;8.57;;;6.00;;
21392;SDS011;10857;52.228;21.026;2023-01-06T03:55:28;8.63;;;5.97;;
21392;SDS011;10857;52.228;21.026;2023-01-06T03:57:58;8.77;;;6.07;;
21392;SDS011;10857;52.228;21.026;2023-01-06T04:00:30;8.53;;;5.77;;
21392;SDS011;10857;52.228;21.026;2023-01-06T04:03:07;8.50;;;5.73;;
21392;SDS011;10857;52.228;21.026;2023-01-06T04:05:36;7.97;;;5.80;;
21392;SDS011;10857;52.228;21.026;2023-01-06T04:08:04;10.10;;;5.70;;
21392;SDS011;10857;52.228;21.026;2023-01-06T04:10:33;10.60;;;6.30;;
21392;SDS011;10857;52.228;21.026;2023-01-06T04:13:02;9.63;;;6.57;;
21392;SDS011;10857;52.228;21.026;2023-01-06T04:15:32;9.43;;;6.23;;
21392;SDS011;10857;52.228;21.026;2023-01-06T04:18:06;11.23;;;6.63;;
21392;SDS011;10857;52.228;21.026;2023-01-06T04:20:38;9.77;;;6.53;;
21392;SDS011;10857;52.228;21.026;2023-01-06T04:23:14;10.00;;;6.30;;
21392;SDS011;10857;52.228;21.026;2023-01-06T04:25:54;10.87;;;6.20;;
21392;SDS011;10857;52.228;21.026;2023-01-06T04:28:31;8.60;;;5.87;;
21392;SDS011;10857;52.228;21.026;2023-01-06T04:31:05;9.63;;;6.63;;
21392;SDS011;10857;52.228;21.026;2023-01-06T04:33:37;10.20;;;6.43;;
21392;SDS011;10857;52.228;21.026;2023-01-06T04:36:09;9.53;;;6.60;;
21392;SDS011;10857;52.228;21.026;2023-01-06T04:38:41;9.40;;;6.43;;
21392;SDS011;10857;52.228;21.026;2023-01-06T04:41:08;11.37;;;6.27;;
21392;SDS011;10857;52.228;21.026;2023-01-06T04:43:36;11.03;;;6.97;;
21392;SDS011;10857;52.228;21.026;2023-01-06T04:46:04;9.77;;;6.23;;
21392;SDS011;10857;52.228;21.026;2023-01-06T04:48:32;8.73;;;6.07;;
21392;SDS011;10857;52.228;21.026;2023-01-06T04:51:06;8.70;;;6.27;;
21392;SDS011;10857;52.228;21.026;2023-01-06T04:53:40;9.60;;;6.80;;
21392;SDS011;10857;52.228;21.026;2023-01-06T04:56:11;8.97;;;6.37;;
21392;SDS011;10857;52.228;21.026;2023-01-06T04:58:39;10.13;;;6.60;;
21392;SDS011;10857;52.228;21.026;2023-01-06T05:01:08;10.17;;;7.10;;
21392;SDS011;10857;52.228;21.026;2023-01-06T05:03:37;10.60;;;7.40;;
21392;SDS011;10857;52.228;21.026;2023-01-06T05:06:23;10.17;;;7.00;;
21392;SDS011;10857;52.228;21.026;2023-01-06T05:08:53;10.73;;;6.63;;
21392;SDS011;10857;52.228;21.026;2023-01-06T05:11:24;10.43;;;7.13;;
21392;SDS011;10857;52.228;21.026;2023-01-06T05:13:54;9.70;;;6.47;;
21392;SDS011;10857;52.228;21.026;2023-01-06T05:16:26;9.93;;;7.00;;
21392;SDS011;10857;52.228;21.026;2023-01-06T05:18:57;10.17;;;6.87;;
21392;SDS011;10857;52.228;21.026;2023-01-06T05:21:26;10.47;;;6.93;;
21392;SDS011;10857;52.228;21.026;2023-01-06T05:23:58;11.10;;;6.63;;
21392;SDS011;10857;52.228;21.026;2023-01-06T05:26:26;9.00;;;6.17;;
21392;SDS011;10857;52.228;21.026;2023-01-06T05:28:54;8.07;;;5.60;;
21392;SDS011;10857;52.228;21.026;2023-01-06T05:31:21;8.73;;;5.73;;
21392;SDS011;10857;52.228;21.026;2023-01-06T05:33:49;8.87;;;5.77;;
21392;SDS011;10857;52.228;21.026;2023-01-06T05:36:17;8.40;;;6.03;;
21392;SDS011;10857;52.228;21.026;2023-01-06T05:38:49;8.50;;;6.00;;
21392;SDS011;10857;52.228;21.026;2023-01-06T05:41:17;8.07;;;5.60;;
21392;SDS011;10857;52.228;21.026;2023-01-06T05:43:45;7.93;;;5.87;;
21392;SDS011;10857;52.228;21.026;2023-01-06T05:46:13;9.13;;;5.60;;
21392;SDS011;10857;52.228;21.026;2023-01-06T05:48:40;7.70;;;5.30;;
21392;SDS011;10857;52.228;21.026;2023-01-06T05:51:12;8.23;;;5.40;;
21392;SDS011;10857;52.228;21.026;2023-01-06T05:53:40;6.87;;;4.80;;
21392;SDS011;10857;52.228;21.026;2023-01-06T05:56:09;7.70;;;5.90;;
21392;SDS011;10857;52.228;21.026;2023-01-06T05:58:37;8.33;;;5.63;;
21392;SDS011;10857;52.228;21.026;2023-01-06T06:01:13;9.20;;;6.57;;
21392;SDS011;10857;52.228;21.026;2023-01-06T06:03:42;9.10;;;6.20;;
21392;SDS011;10857;52.228;21.026;2023-01-06T06:06:10;10.80;;;6.90;;
21392;SDS011;10857;52.228;21.026;2023-01-06T06:08:37;11.17;;;7.67;;
21392;SDS011;10857;52.228;21.026;2023-01-06T06:11:05;11.57;;;7.77;;
21392;SDS011;10857;52.228;21.026;2023-01-06T06:13:33;9.80;;;7.60;;
21392;SDS011;10857;52.228;21.026;2023-01-06T06:16:10;11.30;;;7.83;;
21392;SDS011;10857;52.228;21.026;2023-01-06T06:18:40;10.43;;;7.43;;
21392;SDS011;10857;52.228;21.026;2023-01-06T06:21:11;10.87;;;7.60;;
21392;SDS011;10857;52.228;21.026;2023-01-06T06:23:39;11.37;;;8.03;;
21392;SDS011;10857;52.228;21.026;2023-01-06T06:26:07;13.63;;;8.23;;
21392;SDS011;10857;52.228;21.026;2023-01-06T06:28:36;12.80;;;8.40;;
21392;SDS011;10857;52.228;21.026;2023-01-06T06:31:08;11.23;;;7.87;;
21392;SDS011;10857;52.228;21.026;2023-01-06T06:33:35;9.30;;;6.90;;
21392;SDS011;10857;52.228;21.026;2023-01-06T06:36:05;9.73;;;7.03;;
21392;SDS011;10857;52.228;21.026;2023-01-06T06:38:37;10.77;;;7.07;;
21392;SDS011;10857;52.228;21.026;2023-01-06T06:41:06;11.70;;;7.67;;
21392;SDS011;10857;52.228;21.026;2023-01-06T06:43:33;12.17;;;7.63;;
21392;SDS011;10857;52.228;21.026;2023-01-06T06:46:01;14.03;;;7.53;;
21392;SDS011;10857;52.228;21.026;2023-01-06T06:48:29;10.27;;;7.17;;
21392;SDS011;10857;52.228;21.026;2023-01-06T06:53:25;10.00;;;7.13;;
21392;SDS011;10857;52.228;21.026;2023-01-06T06:55:53;11.50;;;7.40;;
21392;SDS011;10857;52.228;21.026;2023-01-06T06:58:22;10.50;;;7.30;;
21392;SDS011;10857;52.228;21.026;2023-01-06T07:00:50;12.20;;;7.90;;
21392;SDS011;10857;52.228;21.026;2023-01-06T07:03:17;12.30;;;8.30;;
21392;SDS011;10857;52.228;21.026;2023-01-06T07:05:48;10.90;;;7.67;;
21392;SDS011;10857;52.228;21.026;2023-01-06T07:08:16;11.47;;;8.13;;
21392;SDS011;10857;52.228;21.026;2023-01-06T07:10:44;10.83;;;7.43;;
21392;SDS011;10857;52.228;21.026;2023-01-06T07:13:12;11.67;;;7.40;;
21392;SDS011;10857;52.228;21.026;2023-01-06T07:15:40;10.47;;;7.33;;
21392;SDS011;10857;52.228;21.026;2023-01-06T07:18:09;11.93;;;7.90;;
21392;SDS011;10857;52.228;21.026;2023-01-06T07:20:37;11.10;;;7.70;;
21392;SDS011;10857;52.228;21.026;2023-01-06T07:23:05;13.53;;;7.80;;
21392;SDS011;10857;52.228;21.026;2023-01-06T07:25:32;10.87;;;7.13;;
21392;SDS011;10857;52.228;21.026;2023-01-06T07:28:02;10.27;;;6.60;;
21392;SDS011;10857;52.228;21.026;2023-01-06T07:30:32;10.70;;;7.30;;
21392;SDS011;10857;52.228;21.026;2023-01-06T07:33:00;12.03;;;7.20;;
21392;SDS011;10857;52.228;21.026;2023-01-06T07:35:27;12.00;;;7.17;;
21392;SDS011;10857;52.228;21.026;2023-01-06T07:38:00;11.47;;;7.40;;
21392;SDS011;10857;52.228;21.026;2023-01-06T07:40:27;9.53;;;6.90;;
21392;SDS011;10857;52.228;21.026;2023-01-06T07:42:55;10.07;;;6.50;;
21392;SDS011;10857;52.228;21.026;2023-01-06T07:45:24;10.33;;;7.00;;
21392;SDS011;10857;52.228;21.026;2023-01-06T07:47:51;12.57;;;7.70;;
21392;SDS011;10857;52.228;21.026;2023-01-06T07:50:18;10.17;;;7.20;;
21392;SDS011;10857;52.228;21.026;2023-01-06T07:52:46;9.37;;;7.10;;
21392;SDS011;10857;52.228;21.026;2023-01-06T07:55:13;8.60;;;6.00;;
21392;SDS011;10857;52.228;21.026;2023-01-06T07:57:41;9.73;;;7.03;;
21392;SDS011;10857;52.228;21.026;2023-01-06T08:00:08;10.37;;;6.63;;
21392;SDS011;10857;52.228;21.026;2023-01-06T08:02:39;9.57;;;6.53;;
21392;SDS011;10857;52.228;21.026;2023-01-06T08:05:07;9.67;;;6.40;;
21392;SDS011;10857;52.228;21.026;2023-01-06T08:07:36;12.30;;;6.80;;
21392;SDS011;10857;52.228;21.026;2023-01-06T08:10:07;9.47;;;6.57;;
21392;SDS011;10857;52.228;21.026;2023-01-06T08:12:35;9.50;;;6.80;;
21392;SDS011;10857;52.228;21.026;2023-01-06T08:15:04;10.10;;;7.00;;
21392;SDS011;10857;52.228;21.026;2023-01-06T08:17:31;9.07;;;6.83;;
21392;SDS011;10857;52.228;21.026;2023-01-06T08:19:59;11.60;;;7.17;;
21392;SDS011;10857;52.228;21.026;2023-01-06T08:22:26;11.87;;;7.23;;
21392;SDS011;10857;52.228;21.026;2023-01-06T08:24:53;10.80;;;7.23;;
21392;SDS011;10857;52.228;21.026;2023-01-06T08:27:21;9.97;;;7.00;;
21392;SDS011;10857;52.228;21.026;2023-01-06T08:29:49;11.63;;;7.50;;
21392;SDS011;10857;52.228;21.026;2023-01-06T08:32:20;11.83;;;7.10;;
21392;SDS011;10857;52.228;21.026;2023-01-06T08:34:47;11.50;;;7.27;;
21392;SDS011;10857;52.228;21.026;2023-01-06T08:37:15;11.33;;;6.93;;
21392;SDS011;10857;52.228;21.026;2023-01-06T08:39:43;9.97;;;6.70;;
21392;SDS011;10857;52.228;21.026;2023-01-06T08:42:10;10.10;;;6.70;;
21392;SDS011;10857;52.228;21.026;2023-01-06T08:44:37;10.27;;;6.53;;
21392;SDS011;10857;52.228;21.026;2023-01-06T08:47:05;10.63;;;6.80;;
21392;SDS011;10857;52.228;21.026;2023-01-06T08:49:32;12.10;;;7.13;;
21392;SDS011;10857;52.228;21.026;2023-01-06T08:52:00;10.83;;;6.90;;
21392;SDS011;10857;52.228;21.026;2023-01-06T08:54:28;13.57;;;7.30;;
21392;SDS011;10857;52.228;21.026;2023-01-06T08:56:56;12.50;;;7.67;;
21392;SDS011;10857;52.228;21.026;2023-01-06T08:59:24;11.83;;;7.17;;
21392;SDS011;10857;52.228;21.026;2023-01-06T09:01:52;11.60;;;7.07;;
21392;SDS011;10857;52.228;21.026;2023-01-06T09:04:21;12.73;;;6.90;;
21392;SDS011;10857;52.228;21.026;2023-01-06T09:06:49;11.60;;;7.17;;
21392;SDS011;10857;52.228;21.026;2023-01-06T09:09:17;10.80;;;6.60;;
21392;SDS011;10857;52.228;21.026;2023-01-06T09:11:46;12.00;;;7.30;;
21392;SDS011;10857;52.228;21.026;2023-01-06T09:14:13;12.80;;;7.00;;
21392;SDS011;10857;52.228;21.026;2023-01-06T09:16:40;11.00;;;6.47;;
21392;SDS011;10857;52.228;21.026;2023-01-06T09:19:09;11.47;;;6.37;;
21392;SDS011;10857;52.228;21.026;2023-01-06T09:21:38;10.67;;;6.50;;
21392;SDS011;10857;52.228;21.026;2023-01-06T09:24:12;9.87;;;6.83;;
21392;SDS011;10857;52.228;21.026;2023-01-06T09:26:40;12.10;;;7.40;;
21392;SDS011;10857;52.228;21.026;2023-01-06T09:29:08;12.20;;;6.90;;
21392;SDS011;10857;52.228;21.026;2023-01-06T09:31:40;11.10;;;7.13;;
21392;SDS011;10857;52.228;21.026;2023-01-06T09:34:07;10.57;;;7.07;;
21392;SDS011;10857;52.228;21.026;2023-01-06T09:36:45;14.60;;;6.97;;
21392;SDS011;10857;52.228;21.026;2023-01-06T09:39:12;10.57;;;6.90;;
21392;SDS011;10857;52.228;21.026;2023-01-06T09:41:49;10.37;;;6.80;;
21392;SDS011;10857;52.228;21.026;2023-01-06T09:44:20;10.63;;;6.87;;
21392;SDS011;10857;52.228;21.026;2023-01-06T09:46:50;11.10;;;7.83;;
21392;SDS011;10857;52.228;21.026;2023-01-06T09:49:39;14.70;;;7.10;;
21392;SDS011;10857;52.228;21.026;2023-01-06T09:52:21;12.10;;;7.30;;
21392;SDS011;10857;52.228;21.026;2023-01-06T09:57:30;11.83;;;7.37;;
21392;SDS011;10857;52.228;21.026;2023-01-06T10:00:04;11.73;;;7.53;;
21392;SDS011;10857;52.228;21.026;2023-01-06T10:02:35;12.03;;;7.53;;
21392;SDS011;10857;52.228;21.026;2023-01-06T10:21:01;11.20;;;7.63;;
21392;SDS011;10857;52.228;21.026;2023-01-06T10:23:42;10.60;;;7.57;;
21392;SDS011;10857;52.228;21.026;2023-01-06T10:26:12;13.60;;;7.70;;
21392;SDS011;10857;52.228;21.026;2023-01-06T10:28:47;12.13;;;7.73;;
21392;SDS011;10857;52.228;21.026;2023-01-06T10:31:20;12.27;;;7.40;;
21392;SDS011;10857;52.228;21.026;2023-01-06T10:33:50;11.10;;;7.60;;
21392;SDS011;10857;52.228;21.026;2023-01-06T10:36:19;10.53;;;7.27;;
21392;SDS011;10857;52.228;21.026;2023-01-06T10:38:49;11.63;;;7.33;;
21392;SDS011;10857;52.228;21.026;2023-01-06T10:43:54;12.47;;;8.40;;
21392;SDS011;10857;52.228;21.026;2023-01-06T10:46:30;11.90;;;7.47;;
21392;SDS011;10857;52.228;21.026;2023-01-06T10:49:00;10.40;;;6.93;;
21392;SDS011;10857;52.228;21.026;2023-01-06T10:51:34;9.83;;;6.83;;
21392;SDS011;10857;52.228;21.026;2023-01-06T10:54:11;9.70;;;6.70;;
21392;SDS011;10857;52.228;21.026;2023-01-06T10:56:41;10.50;;;7.53;;
21392;SDS011;10857;52.228;21.026;2023-01-06T10:59:10;12.07;;;7.80;;
21392;SDS011;10857;52.228;21.026;2023-01-06T11:01:48;12.60;;;7.33;;
21392;SDS011;10857;52.228;21.026;2023-01-06T11:04:16;13.30;;;7.77;;
21392;SDS011;10857;52.228;21.026;2023-01-06T11:07:01;13.27;;;8.30;;
21392;SDS011;10857;52.228;21.026;2023-01-06T11:09:36;13.33;;;8.57;;
21392;SDS011;10857;52.228;21.026;2023-01-06T11:12:24;14.07;;;8.97;;
21392;SDS011;10857;52.228;21.026;2023-01-06T11:14:58;16.20;;;8.90;;
21392;SDS011;10857;52.228;21.026;2023-01-06T11:17:27;14.37;;;8.93;;
21392;SDS011;10857;52.228;21.026;2023-01-06T11:20:08;14.27;;;9.10;;
21392;SDS011;10857;52.228;21.026;2023-01-06T11:22:41;18.17;;;9.63;;
21392;SDS011;10857;52.228;21.026;2023-01-06T11:30:32;16.70;;;10.40;;
21392;SDS011;10857;52.228;21.026;2023-01-06T11:33:28;15.27;;;10.23;;
21392;SDS011;10857;52.228;21.026;2023-01-06T11:35:54;21.43;;;11.87;;
21392;SDS011;10857;52.228;21.026;2023-01-06T11:38:26;19.37;;;11.87;;
21392;SDS011;10857;52.228;21.026;2023-01-06T11:40:54;17.10;;;10.90;;
21392;SDS011;10857;52.228;21.026;2023-01-06T11:45:54;17.97;;;10.40;;
21392;SDS011;10857;52.228;21.026;2023-01-06T11:48:30;16.10;;;9.93;;
21392;SDS011;10857;52.228;21.026;2023-01-06T11:51:00;16.93;;;9.80;;
21392;SDS011;10857;52.228;21.026;2023-01-06T11:53:28;15.97;;;9.60;;
21392;SDS011;10857;52.228;21.026;2023-01-06T11:56:02;14.60;;;9.57;;
21392;SDS011;10857;52.228;21.026;2023-01-06T12:04:05;18.00;;;9.90;;
21392;SDS011;10857;52.228;21.026;2023-01-06T12:06:36;16.57;;;9.40;;
21392;SDS011;10857;52.228;21.026;2023-01-06T12:09:05;15.23;;;9.33;;
21392;SDS011;10857;52.228;21.026;2023-01-06T12:11:52;13.67;;;8.70;;
21392;SDS011;10857;52.228;21.026;2023-01-06T12:14:24;14.07;;;8.80;;
21392;SDS011;10857;52.228;21.026;2023-01-06T12:19:35;13.67;;;9.20;;
21392;SDS011;10857;52.228;21.026;2023-01-06T12:22:10;14.97;;;9.50;;
21392;SDS011;10857;52.228;21.026;2023-01-06T12:24:52;15.77;;;9.80;;
21392;SDS011;10857;52.228;21.026;2023-01-06T12:27:44;15.27;;;9.37;;
21392;SDS011;10857;52.228;21.026;2023-01-06T12:33:12;15.37;;;9.57;;
21392;SDS011;10857;52.228;21.026;2023-01-06T12:35:42;16.80;;;9.37;;
21392;SDS011;10857;52.228;21.026;2023-01-06T12:41:08;15.07;;;9.57;;
21392;SDS011;10857;52.228;21.026;2023-01-06T12:43:37;14.30;;;9.43;;
21392;SDS011;10857;52.228;21.026;2023-01-06T12:46:22;15.97;;;9.67;;
21392;SDS011;10857;52.228;21.026;2023-01-06T12:48:54;15.83;;;9.80;;
21392;SDS011;10857;52.228;21.026;2023-01-06T12:51:33;16.20;;;9.97;;
21392;SDS011;10857;52.228;21.026;2023-01-06T12:59:37;16.50;;;10.20;;
21392;SDS011;10857;52.228;21.026;2023-01-06T13:07:29;16.80;;;10.80;;
21392;SDS011;10857;52.228;21.026;2023-01-06T13:10:09;18.77;;;10.43;;
21392;SDS011;10857;52.228;21.026;2023-01-06T13:17:45;15.33;;;10.00;;
21392;SDS011;10857;52.228;21.026;2023-01-06T13:33:46;16.50;;;10.10;;
21392;SDS011;10857;52.228;21.026;2023-01-06T16:39:28;28.67;;;14.33;;
21392;SDS011;10857;52.228;21.026;2023-01-06T16:44:29;30.27;;;15.67;;
21392;SDS011;10857;52.228;21.026;2023-01-06T16:46:58;30.50;;;16.13;;
21392;SDS011;10857;52.228;21.026;2023-01-06T16:49:27;29.30;;;15.80;;
21392;SDS011;10857;52.228;21.026;2023-01-06T16:51:54;36.03;;;18.60;;
21392;SDS011;10857;52.228;21.026;2023-01-06T16:54:22;33.27;;;17.60;;
21392;SDS011;10857;52.228;21.026;2023-01-06T16:56:49;37.40;;;18.00;;
21392;SDS011;10857;52.228;21.026;2023-01-06T16:59:18;34.80;;;17.90;;
21392;SDS011;10857;52.228;21.026;2023-01-06T17:01:47;35.80;;;17.97;;
21392;SDS011;10857;52.228;21.026;2023-01-06T17:04:15;34.97;;;18.47;;
21392;SDS011;10857;52.228;21.026;2023-01-06T17:06:43;35.60;;;19.33;;
21392;SDS011;10857;52.228;21.026;2023-01-06T17:09:18;38.63;;;19.27;;
21392;SDS011;10857;52.228;21.026;2023-01-06T17:11:50;39.23;;;19.37;;
21392;SDS011;10857;52.228;21.026;2023-01-06T17:14:19;36.43;;;19.47;;
21392;SDS011;10857;52.228;21.026;2023-01-06T17:16:47;38.73;;;19.33;;
21392;SDS011;10857;52.228;21.026;2023-01-06T17:19:22;42.27;;;20.77;;
21392;SDS011;10857;52.228;21.026;2023-01-06T17:24:43;44.40;;;22.43;;
21392;SDS011;10857;52.228;21.026;2023-01-06T17:27:15;48.67;;;23.73;;
21392;SDS011;10857;52.228;21.026;2023-01-06T17:29:44;50.63;;;23.63;;
21392;SDS011;10857;52.228;21.026;2023-01-06T17:32:21;52.87;;;24.23;;
21392;SDS011;10857;52.228;21.026;2023-01-06T17:34:49;45.67;;;23.13;;
21392;SDS011;10857;52.228;21.026;2023-01-06T17:37:23;49.97;;;25.17;;
21392;SDS011;10857;52.228;21.026;2023-01-06T17:39:50;49.37;;;24.53;;
21392;SDS011;10857;52.228;21.026;2023-01-06T17:44:47;48.73;;;24.33;;
21392;SDS011;10857;52.228;21.026;2023-01-06T17:49:51;48.27;;;24.30;;
21392;SDS011;10857;52.228;21.026;2023-01-06T17:54:56;48.83;;;26.23;;
21392;SDS011;10857;52.228;21.026;2023-01-06T17:57:42;48.67;;;24.30;;
21392;SDS011;10857;52.228;21.026;2023-01-06T18:00:17;49.33;;;24.73;;
21392;SDS011;10857;52.228;21.026;2023-01-06T18:02:45;46.53;;;23.53;;
21392;SDS011;10857;52.228;21.026;2023-01-06T18:08:09;48.60;;;24.57;;
21392;SDS011;10857;52.228;21.026;2023-01-06T18:10:40;47.40;;;23.47;;
21392;SDS011;10857;52.228;21.026;2023-01-06T18:13:22;48.90;;;24.73;;
21392;SDS011;10857;52.228;21.026;2023-01-06T18:15:56;51.77;;;25.20;;
21392;SDS011;10857;52.228;21.026;2023-01-06T18:18:38;53.50;;;24.50;;
21392;SDS011;10857;52.228;21.026;2023-01-06T18:23:46;47.43;;;24.03;;
21392;SDS011;10857;52.228;21.026;2023-01-06T18:28:54;54.13;;;25.10;;
21392;SDS011;10857;52.228;21.026;2023-01-06T18:31:23;50.10;;;24.47;;
21392;SDS011;10857;52.228;21.026;2023-01-06T18:33:53;46.20;;;23.63;;
21392;SDS011;10857;52.228;21.026;2023-01-06T18:36:20;47.10;;;24.23;;
21392;SDS011;10857;52.228;21.026;2023-01-06T18:38:47;48.43;;;24.30;;
21392;SDS011;10857;52.228;21.026;2023-01-06T18:41:16;50.77;;;25.40;;
21392;SDS011;10857;52.228;21.026;2023-01-06T18:43:43;49.00;;;23.80;;
21392;SDS011;10857;52.228;21.026;2023-01-06T18:46:15;47.73;;;24.50;;
21392;SDS011;10857;52.228;21.026;2023-01-06T18:48:46;49.40;;;24.13;;
21392;SDS011;10857;52.228;21.026;2023-01-06T18:51:14;46.13;;;23.53;;
21392;SDS011;10857;52.228;21.026;2023-01-06T18:53:42;50.10;;;24.67;;
21392;SDS011;10857;52.228;21.026;2023-01-06T18:58:48;49.40;;;24.53;;
21392;SDS011;10857;52.228;21.026;2023-01-06T19:01:20;47.67;;;23.30;;
21392;SDS011;10857;52.228;21.026;2023-01-06T19:08:43;47.67;;;24.03;;
21392;SDS011;10857;52.228;21.026;2023-01-06T19:11:12;47.27;;;24.17;;
21392;SDS011;10857;52.228;21.026;2023-01-06T19:13:41;46.13;;;22.97;;
21392;SDS011;10857;52.228;21.026;2023-01-06T19:18:52;44.53;;;22.33;;
21392;SDS011;10857;52.228;21.026;2023-01-06T19:21:21;47.03;;;22.90;;
21392;SDS011;10857;52.228;21.026;2023-01-06T19:23:49;46.53;;;22.90;;
21392;SDS011;10857;52.228;21.026;2023-01-06T19:28:53;47.60;;;22.60;;
21392;SDS011;10857;52.228;21.026;2023-01-06T19:31:23;46.90;;;22.93;;
21392;SDS011;10857;52.228;21.026;2023-01-06T19:33:54;49.90;;;23.77;;
21392;SDS011;10857;52.228;21.026;2023-01-06T19:38:50;47.30;;;22.50;;
21392;SDS011;10857;52.228;21.026;2023-01-06T19:41:22;54.30;;;25.30;;
21392;SDS011;10857;52.228;21.026;2023-01-06T19:44:10;44.27;;;22.27;;
21392;SDS011;10857;52.228;21.026;2023-01-06T19:46:41;44.50;;;22.33;;
21392;SDS011;10857;52.228;21.026;2023-01-06T19:49:16;47.43;;;23.47;;
21392;SDS011;10857;52.228;21.026;2023-01-06T19:51:44;45.10;;;22.77;;
21392;SDS011;10857;52.228;21.026;2023-01-06T19:56:47;44.60;;;21.53;;
21392;SDS011;10857;52.228;21.026;2023-01-06T20:01:53;42.27;;;21.53;;
21392;SDS011;10857;52.228;21.026;2023-01-06T20:04:23;43.10;;;22.03;;
21392;SDS011;10857;52.228;21.026;2023-01-06T20:06:51;44.67;;;21.93;;
21392;SDS011;10857;52.228;21.026;2023-01-06T20:09:19;41.93;;;21.03;;
21392;SDS011;10857;52.228;21.026;2023-01-06T20:11:50;43.47;;;22.00;;
21392;SDS011;10857;52.228;21.026;2023-01-06T20:14:17;42.47;;;21.10;;
21392;SDS011;10857;52.228;21.026;2023-01-06T20:16:45;42.47;;;20.93;;
21392;SDS011;10857;52.228;21.026;2023-01-06T20:19:13;46.60;;;22.63;;